Aviation Digital Data Service (ADDS)

Output produced by METARs form (1345 UTC 26 May 2018)
found at http://www.aviationweather.gov/adds/metars/
 
TAF MTCH 261100Z 2612/2712 VRB02KT 9999 FEW024 
     BECMG 2614/2617KT 03010KT 
     PROB30 
     TEMPO 2700/2704 5400 -SHRA FEW025CB SCT030 
     BECMG 2706/2710 VRB02KT 9000 FEW020
       
TAF MTPP 261100Z 2612/2712 VRB02KT 9999 FEW020 
     TEMPO 2614/2618 09010G20KT 
     PROB30 
     TEMPO 2702/2706 5400 -SHRA FEW025CB SCT030 
     BECMG 2708/2712 VRB02KT 9000 FEW018